Time;durP1;ratioP1;P1;durP2;ratioP2;P2;SDS_P1;SDS_P2;PMS_P1;PMS_P2;Temp;Humidity;BMP_temperature;BMP_pressure;BME280_temperature;BME280_humidity;BME280_pressure;Samples;Min_cycle;Max_cycle;Signal;HPM_P1;HPM_P2
2022/08/02 00:02:24;;;;;;;1.50;1.40;;;27.00;62.80;;;;;;5013864;28;20040;-75
2022/08/02 00:04:50;;;;;;;1.48;1.35;;;27.00;61.80;;;;;;5013952;28;20347;-75
2022/08/02 00:07:16;;;;;;;2.10;1.60;;;27.10;61.30;;;;;;5031711;28;20025;-75
2022/08/02 00:09:43;;;;;;;1.55;1.30;;;27.10;61.60;;;;;;5013653;28;20029;-75
2022/08/02 00:12:09;;;;;;;2.22;1.10;;;27.10;61.40;;;;;;5031495;28;20010;-75
2022/08/02 00:14:35;;;;;;;2.10;1.40;;;27.10;61.20;;;;;;5031442;28;20026;-76
2022/08/02 00:17:01;;;;;;;2.47;1.40;;;27.20;60.50;;;;;;5031572;28;20017;-75
2022/08/02 00:19:27;;;;;;;3.10;1.30;;;27.20;59.90;;;;;;5031258;28;20028;-76
2022/08/02 00:21:53;;;;;;;1.95;1.33;;;27.20;59.80;;;;;;5031547;28;20383;-75
2022/08/02 00:24:18;;;;;;;1.08;1.08;;;27.30;59.50;;;;;;5034085;28;20458;-76
2022/08/02 00:26:44;;;;;;;1.77;1.30;;;27.30;59.60;;;;;;5031351;28;20053;-75
2022/08/02 00:29:10;;;;;;;1.90;1.50;;;27.30;59.60;;;;;;5031341;28;20029;-76
2022/08/02 00:31:36;;;;;;;1.50;1.40;;;27.30;59.60;;;;;;5031197;28;20492;-75
2022/08/02 00:34:02;;;;;;;1.48;1.38;;;27.30;59.50;;;;;;5031278;28;20253;-76
2022/08/02 00:36:28;;;;;;;1.60;1.50;;;27.20;59.60;;;;;;5013412;28;20030;-76
2022/08/02 00:38:54;;;;;;;1.50;1.40;;;27.20;59.10;;;;;;5031322;28;20048;-75
2022/08/02 00:41:21;;;;;;;1.50;1.45;;;27.20;58.80;;;;;;5013356;28;20484;-76
2022/08/02 00:43:48;;;;;;;1.70;1.60;;;27.20;58.40;;;;;;5031068;28;20045;-76
2022/08/02 00:46:15;;;;;;;1.45;1.20;;;27.30;58.20;;;;;;5031438;28;20395;-75
2022/08/02 00:48:40;;;;;;;1.35;1.25;;;27.20;58.20;;;;;;5013549;28;20025;-76
2022/08/02 00:51:06;;;;;;;2.40;1.60;;;27.30;58.30;;;;;;5030994;28;20373;-75
2022/08/02 00:53:32;;;;;;;1.90;1.80;;;27.30;58.40;;;;;;5031250;28;20034;-75
2022/08/02 00:55:59;;;;;;;1.40;1.27;;;27.10;58.90;;;;;;5030923;28;20029;-75
2022/08/02 00:58:25;;;;;;;1.23;1.13;;;27.10;59.10;;;;;;5031048;28;20017;-75
2022/08/02 01:00:51;;;;;;;1.55;1.27;;;27.10;58.90;;;;;;5031172;28;20061;-76
2022/08/02 01:03:16;;;;;;;3.80;1.40;;;27.10;58.50;;;;;;5030885;28;20388;-75
2022/08/02 01:05:45;;;;;;;1.05;1.05;;;27.10;58.40;;;;;;5030994;28;20033;-76
2022/08/02 01:08:11;;;;;;;1.45;1.30;;;27.10;58.50;;;;;;5030943;28;20060;-75
2022/08/02 01:10:36;;;;;;;1.50;1.40;;;27.10;58.70;;;;;;5030980;28;20056;-75
2022/08/02 01:13:02;;;;;;;1.50;1.40;;;27.10;59.10;;;;;;5030841;28;20216;-75
2022/08/02 01:15:28;;;;;;;2.35;1.10;;;27.10;59.40;;;;;;5033341;28;20072;-75
2022/08/02 01:18:06;;;;;;;3.78;1.30;;;27.10;59.50;;;;;;5034851;28;20025;-75
2022/08/02 01:20:34;;;;;;;1.35;1.30;;;27.10;59.90;;;;;;5034553;28;20021;-76
2022/08/02 01:23:21;;;;;;;2.95;1.30;;;27.00;59.90;;;;;;5031510;28;20032;-76
2022/08/02 01:26:05;;;;;;;1.38;1.38;;;27.00;60.00;;;;;;5034558;28;20032;-76
2022/08/02 01:28:31;;;;;;;1.20;1.13;;;27.10;60.50;;;;;;5034616;28;20479;-76
2022/08/02 01:31:09;;;;;;;1.40;1.30;;;27.10;60.80;;;;;;5034356;28;20034;-75
2022/08/02 01:33:50;;;;;;;2.33;1.63;;;27.20;60.40;;;;;;5034664;28;20025;-76
2022/08/02 01:36:19;;;;;;;1.50;1.40;;;27.20;60.30;;;;;;5034475;28;20032;-76
2022/08/02 01:38:48;;;;;;;1.52;1.42;;;27.10;60.60;;;;;;5034085;28;20101;-76
2022/08/02 01:41:22;;;;;;;1.90;1.35;;;27.20;61.20;;;;;;5034137;28;20075;-76
2022/08/02 01:43:51;;;;;;;1.35;1.33;;;27.30;61.00;;;;;;5034156;28;20049;-76
2022/08/02 01:46:19;;;;;;;1.27;1.20;;;27.20;60.70;;;;;;5016372;28;20064;-76
2022/08/02 01:48:47;;;;;;;1.42;1.33;;;27.30;60.50;;;;;;5034005;28;20022;-75
2022/08/02 01:51:16;;;;;;;2.25;1.20;;;27.20;61.30;;;;;;5034093;28;20026;-76
2022/08/02 01:53:46;;;;;;;3.95;1.40;;;27.20;60.00;;;;;;5016492;28;20057;-76
2022/08/02 01:56:14;;;;;;;1.30;1.30;;;27.20;60.60;;;;;;5034169;28;20446;-76
2022/08/02 01:58:43;;;;;;;3.53;1.33;;;27.20;61.20;;;;;;5016109;28;20022;-75
2022/08/02 02:01:10;;;;;;;3.30;1.35;;;27.20;61.10;;;;;;5033897;28;20514;-76
2022/08/02 02:03:38;;;;;;;5.38;1.80;;;27.20;60.70;;;;;;5015935;28;20028;-76
2022/08/02 02:06:07;;;;;;;1.98;1.45;;;27.20;61.00;;;;;;5016100;28;20088;-76
2022/08/02 02:08:41;;;;;;;3.53;1.70;;;27.20;60.80;;;;;;5034008;28;20025;-76
2022/08/02 02:11:07;;;;;;;2.80;1.55;;;27.20;60.70;;;;;;5033746;28;20030;-75
2022/08/02 02:13:33;;;;;;;2.33;1.35;;;27.20;60.40;;;;;;5033795;28;20033;-76
2022/08/02 02:16:02;;;;;;;1.50;1.50;;;27.20;61.10;;;;;;5033914;28;20034;-76
2022/08/02 02:18:29;;;;;;;1.98;1.70;;;27.10;61.60;;;;;;5033737;28;20021;-76
2022/08/02 02:20:55;;;;;;;1.58;1.17;;;27.00;61.80;;;;;;5053428;28;20021;-75
2022/08/02 02:23:21;;;;;;;1.75;1.50;;;27.00;62.10;;;;;;5053432;28;20021;-76
2022/08/02 02:25:47;;;;;;;1.35;1.30;;;27.00;62.20;;;;;;5053141;28;20094;-76
2022/08/02 02:28:23;;;;;;;2.45;1.50;;;27.00;62.40;;;;;;5045158;28;20135;-76
2022/08/02 02:30:54;;;;;;;1.75;1.63;;;27.00;62.70;;;;;;5015379;28;20025;-76
2022/08/02 02:33:21;;;;;;;3.05;1.65;;;27.00;63.50;;;;;;5033252;28;20028;-76
2022/08/02 02:35:50;;;;;;;1.48;1.38;;;26.90;63.40;;;;;;5033073;28;20510;-75
2022/08/02 02:38:19;;;;;;;2.15;1.30;;;26.90;63.60;;;;;;5033252;28;20021;-76
2022/08/02 02:40:46;;;;;;;2.55;1.52;;;26.90;64.00;;;;;;5033129;28;20098;-76
2022/08/02 02:43:13;;;;;;;3.90;1.92;;;26.90;66.20;;;;;;5033114;28;20029;-76
2022/08/02 02:45:41;;;;;;;1.83;1.55;;;26.70;68.60;;;;;;5032895;28;20415;-76
2022/08/02 02:48:08;;;;;;;1.30;1.20;;;26.80;68.10;;;;;;5033073;28;20030;-76
2022/08/02 02:50:36;;;;;;;1.83;1.73;;;26.70;67.70;;;;;;5032737;28;20075;-76
2022/08/02 02:53:02;;;;;;;2.85;1.92;;;26.60;67.50;;;;;;5015090;28;20020;-76
2022/08/02 02:55:28;;;;;;;1.35;1.25;;;26.70;69.00;;;;;;5032782;28;20034;-76
2022/08/02 02:57:55;;;;;;;3.63;1.38;;;26.60;70.00;;;;;;5015111;28;20064;-76
2022/08/02 03:01:26;;;;;;;1.30;1.30;;;26.60;72.60;;;;;;5032533;28;20048;-76
2022/08/02 03:03:07;;;;;;;9.18;2.63;;;26.50;74.00;;;;;;5032586;28;20091;-75
2022/08/02 03:05:33;;;;;;;3.67;2.85;;;26.40;86.90;;;;;;5014805;28;20029;-75
2022/08/02 03:07:59;;;;;;;6.18;2.55;;;26.40;94.80;;;;;;5032753;28;20088;-75
2022/08/02 03:10:26;;;;;;;6.78;2.20;;;26.10;97.80;;;;;;5032565;28;20033;-75
2022/08/02 03:12:52;;;;;;;4.05;2.72;;;25.80;99.90;;;;;;5032504;28;20025;-75
2022/08/02 03:15:19;;;;;;;8.25;2.45;;;25.70;99.90;;;;;;5032513;28;20479;-75
2022/08/02 03:17:45;;;;;;;5.60;2.40;;;25.60;99.90;;;;;;5032326;28;20116;-75
2022/08/02 03:20:13;;;;;;;1.98;1.80;;;25.50;99.90;;;;;;5032252;28;20415;-75
2022/08/02 03:22:39;;;;;;;3.28;1.73;;;25.30;99.90;;;;;;5032373;28;20403;-75
2022/08/02 03:25:07;;;;;;;2.30;1.70;;;25.40;99.90;;;;;;5029166;28;20431;-75
2022/08/02 03:27:33;;;;;;;3.15;2.00;;;25.30;99.90;;;;;;5032163;28;20021;-75
2022/08/02 03:29:59;;;;;;;2.45;2.17;;;25.20;99.90;;;;;;5032115;28;20108;-76
2022/08/02 03:32:25;;;;;;;1.45;1.45;;;25.10;99.90;;;;;;5014434;28;20025;-76
2022/08/02 03:34:51;;;;;;;2.15;1.92;;;25.00;99.90;;;;;;5032238;28;20033;-75
2022/08/02 03:37:17;;;;;;;2.53;2.15;;;25.10;99.90;;;;;;5031410;28;20025;-75
2022/08/02 03:39:44;;;;;;;1.90;1.80;;;25.10;99.90;;;;;;5014273;28;20479;-75
2022/08/02 03:42:10;;;;;;;2.00;1.90;;;25.10;99.90;;;;;;5032159;28;20144;-75
2022/08/02 03:44:38;;;;;;;1.83;1.73;;;25.00;99.90;;;;;;5031793;28;20049;-76
2022/08/02 03:47:05;;;;;;;1.90;1.80;;;25.10;99.90;;;;;;5031798;28;20028;-76
2022/08/02 03:49:33;;;;;;;3.38;2.20;;;25.00;99.90;;;;;;5032095;28;20026;-76
2022/08/02 03:52:00;;;;;;;4.07;2.30;;;25.00;99.90;;;;;;5032025;28;20048;-76
2022/08/02 03:54:26;;;;;;;5.57;2.03;;;25.00;99.90;;;;;;5031793;28;20087;-76
2022/08/02 03:56:52;;;;;;;4.30;1.73;;;25.00;99.90;;;;;;5031634;28;20031;-76
2022/08/02 03:59:18;;;;;;;2.17;1.98;;;24.80;99.90;;;;;;5013819;28;20116;-76
2022/08/02 04:01:45;;;;;;;2.05;1.95;;;24.80;99.90;;;;;;5031733;28;20550;-76
2022/08/02 04:04:10;;;;;;;2.17;2.00;;;24.70;99.90;;;;;;5031515;28;20053;-76
2022/08/02 04:06:36;;;;;;;2.47;1.73;;;24.60;99.90;;;;;;5031796;28;20056;-76
2022/08/02 04:09:02;;;;;;;3.80;1.45;;;24.70;99.90;;;;;;5033842;28;20033;-76
2022/08/02 04:11:31;;;;;;;2.13;1.92;;;24.70;99.90;;;;;;5031480;28;20032;-76
2022/08/02 04:14:08;;;;;;;2.78;2.10;;;24.80;99.90;;;;;;5013619;28;20372;-76
2022/08/02 04:16:46;;;;;;;2.90;2.00;;;24.80;99.90;;;;;;5013556;28;20034;-76
2022/08/02 04:19:33;;;;;;;1.45;1.35;;;24.80;99.90;;;;;;5031491;28;20029;-76
2022/08/02 04:22:04;;;;;;;1.23;1.23;;;24.80;99.40;;;;;;5013795;28;20027;-76
2022/08/02 04:24:44;;;;;;;1.10;1.10;;;24.80;99.50;;;;;;5013660;28;20026;-75
2022/08/02 04:27:11;;;;;;;1.05;1.05;;;24.90;97.70;;;;;;5031291;28;20052;-76
2022/08/02 04:29:39;;;;;;;0.90;0.90;;;24.90;96.90;;;;;;5013413;28;20415;-75
2022/08/02 04:32:06;;;;;;;1.17;1.02;;;25.00;96.20;;;;;;5031387;28;20386;-76
2022/08/02 04:34:32;;;;;;;0.88;0.88;;;25.00;95.50;;;;;;5031483;28;20030;-76
2022/08/02 04:36:59;;;;;;;1.02;0.85;;;25.00;94.40;;;;;;5031096;28;20449;-76
2022/08/02 04:39:25;;;;;;;1.10;0.70;;;25.00;93.50;;;;;;5013468;28;20030;-75
2022/08/02 04:41:51;;;;;;;0.55;0.55;;;25.00;92.30;;;;;;5031395;28;20057;-75
2022/08/02 04:44:17;;;;;;;1.20;0.70;;;25.00;91.70;;;;;;5013520;28;20088;-76
2022/08/02 04:46:44;;;;;;;0.52;0.52;;;24.90;91.00;;;;;;5031108;28;20041;-75
2022/08/02 04:49:10;;;;;;;0.47;0.47;;;24.70;91.70;;;;;;5031487;28;20025;-76
2022/08/02 04:51:41;;;;;;;0.57;0.57;;;24.50;92.10;;;;;;5017252;28;20577;-75
2022/08/02 04:54:08;;;;;;;0.68;0.68;;;24.40;92.50;;;;;;5024848;28;20481;-76
2022/08/02 04:56:34;;;;;;;0.70;0.68;;;24.20;92.80;;;;;;5004715;28;20022;-76
2022/08/02 04:59:00;;;;;;;0.38;0.38;;;24.10;93.40;;;;;;5029545;28;20024;-76
2022/08/02 05:01:26;;;;;;;0.60;0.60;;;24.10;93.50;;;;;;5017192;28;20041;-75
2022/08/02 05:03:52;;;;;;;1.42;0.65;;;24.00;94.00;;;;;;5035064;28;20013;-76
2022/08/02 05:06:20;;;;;;;0.57;0.57;;;24.00;93.40;;;;;;5034923;28;20036;-76
2022/08/02 05:08:47;;;;;;;0.40;0.40;;;24.10;93.40;;;;;;5034607;28;20546;-76
2022/08/02 05:11:13;;;;;;;0.47;0.47;;;24.10;93.50;;;;;;5034931;28;20029;-75
2022/08/02 05:13:40;;;;;;;0.65;0.65;;;24.10;93.50;;;;;;5034978;28;20030;-76
2022/08/02 05:16:09;;;;;;;0.93;0.40;;;24.10;93.80;;;;;;5034478;28;20025;-75
2022/08/02 05:18:34;;;;;;;0.90;0.32;;;24.20;93.60;;;;;;5031460;28;20022;-76
2022/08/02 05:21:00;;;;;;;0.80;0.50;;;24.10;94.90;;;;;;5016889;28;20391;-76
2022/08/02 05:23:26;;;;;;;0.95;0.50;;;24.00;96.30;;;;;;5034693;28;20024;-75
2022/08/02 05:25:52;;;;;;;2.28;0.88;;;23.80;97.40;;;;;;5034598;28;20040;-76
2022/08/02 05:28:17;;;;;;;0.30;0.30;;;23.60;98.30;;;;;;5026169;28;20034;-75
2022/08/02 05:30:43;;;;;;;0.40;0.40;;;23.40;98.70;;;;;;5014584;28;20037;-75
2022/08/02 05:33:09;;;;;;;0.30;0.30;;;23.40;98.70;;;;;;5014371;28;20077;-75
2022/08/02 05:35:34;;;;;;;0.30;0.30;;;23.40;99.00;;;;;;5014294;28;20099;-76
2022/08/02 05:38:00;;;;;;;0.30;0.30;;;23.50;98.90;;;;;;5014236;28;20018;-76
2022/08/02 05:40:26;;;;;;;2.20;1.23;;;23.60;99.30;;;;;;5014270;28;20025;-74
2022/08/02 05:42:53;;;;;;;2.42;1.13;;;23.70;99.90;;;;;;4996595;28;20026;-75
2022/08/02 05:45:19;;;;;;;3.13;1.25;;;23.70;99.90;;;;;;5014066;28;20184;-75
2022/08/02 05:47:44;;;;;;;2.85;0.77;;;23.60;99.90;;;;;;5013869;28;20108;-75
2022/08/02 05:50:10;;;;;;;2.38;1.02;;;23.40;99.90;;;;;;5012250;28;20026;-76
2022/08/02 05:53:08;;;;;;;0.75;0.75;;;23.20;99.90;;;;;;4994772;28;20416;-77
2022/08/02 05:55:39;;;;;;;0.50;0.50;;;22.90;99.90;;;;;;4983062;28;20041;-76
2022/08/02 05:58:26;;;;;;;0.73;0.57;;;22.50;99.90;;;;;;5018998;28;20021;-77
2022/08/02 06:00:55;;;;;;;2.03;0.73;;;22.10;99.90;;;;;;5013689;28;20252;-76
2022/08/02 06:03:43;;;;;;;0.50;0.50;;;21.90;99.90;;;;;;5014924;28;20022;-76
2022/08/02 06:06:16;;;;;;;1.52;1.13;;;21.70;99.90;;;;;;5035701;28;20037;-76
2022/08/02 06:08:49;;;;;;;1.52;0.60;;;21.60;99.90;;;;;;5033718;28;20022;-76
2022/08/02 06:11:19;;;;;;;3.85;1.00;;;21.60;99.90;;;;;;5015933;28;20373;-76
2022/08/02 06:13:46;;;;;;;0.65;0.65;;;21.60;99.90;;;;;;5033765;28;20022;-77
2022/08/02 06:16:12;;;;;;;0.45;0.45;;;21.50;99.90;;;;;;5033609;28;20109;-76
2022/08/02 06:18:40;;;;;;;0.88;0.82;;;21.40;99.90;;;;;;5015740;28;20081;-77
2022/08/02 06:21:07;;;;;;;0.60;0.60;;;21.30;99.90;;;;;;5033455;28;20021;-77
2022/08/02 06:23:38;;;;;;;1.27;0.60;;;21.30;99.90;;;;;;5015899;28;20025;-77
2022/08/02 06:26:06;;;;;;;0.68;0.68;;;21.20;99.90;;;;;;5015780;28;20030;-77
2022/08/02 06:28:36;;;;;;;1.05;0.40;;;21.10;99.90;;;;;;5015615;28;20017;-77
2022/08/02 06:31:02;;;;;;;0.70;0.70;;;21.20;99.90;;;;;;5033577;28;20036;-77
2022/08/02 06:33:27;;;;;;;2.33;0.63;;;21.10;99.90;;;;;;5015374;28;20387;-78
2022/08/02 06:36:18;;;;;;;0.55;0.50;;;21.20;99.90;;;;;;5015486;28;20029;-77
2022/08/02 06:39:15;;;;;;;0.80;0.60;;;21.30;99.90;;;;;;5033016;28;20032;-77
2022/08/02 06:41:43;;;;;;;1.42;0.45;;;21.40;99.90;;;;;;5015217;28;20446;-78
2022/08/02 06:44:09;;;;;;;2.42;0.63;;;21.40;99.90;;;;;;5032947;28;20069;-78
2022/08/02 06:46:36;;;;;;;0.90;0.65;;;21.50;99.90;;;;;;5015337;28;20029;-77
2022/08/02 06:49:02;;;;;;;3.65;0.82;;;21.50;99.90;;;;;;5032933;28;20063;-77
2022/08/02 06:51:28;;;;;;;3.13;0.98;;;21.40;99.90;;;;;;5033184;28;20085;-78
2022/08/02 06:53:54;;;;;;;2.78;1.27;;;21.50;99.90;;;;;;5032879;28;20029;-78
2022/08/02 06:56:20;;;;;;;0.82;0.75;;;21.40;99.90;;;;;;5015081;28;20056;-78
2022/08/02 06:58:46;;;;;;;1.38;0.80;;;21.40;99.90;;;;;;5015024;28;20480;-79
2022/08/02 07:01:12;;;;;;;1.05;0.70;;;21.30;99.90;;;;;;5015621;28;20028;-84
2022/08/02 07:03:39;;;;;;;0.63;0.63;;;21.00;99.90;;;;;;5033054;28;20104;-83
2022/08/02 07:06:09;;;;;;;0.70;0.50;;;21.00;99.90;;;;;;5015356;28;20068;-84
2022/08/02 07:08:37;;;;;;;1.73;1.05;;;21.00;99.90;;;;;;5032838;28;20037;-83
2022/08/02 07:11:07;;;;;;;0.90;0.90;;;20.90;99.90;;;;;;5032955;28;20515;-82
2022/08/02 07:13:33;;;;;;;3.55;1.00;;;21.00;99.90;;;;;;5031751;28;20037;-83
2022/08/02 07:16:00;;;;;;;1.85;0.73;;;20.90;99.90;;;;;;5032585;28;20029;-82
2022/08/02 07:18:25;;;;;;;1.00;0.60;;;20.80;99.90;;;;;;5014840;28;20053;-82
2022/08/02 07:20:51;;;;;;;3.35;1.20;;;20.70;99.90;;;;;;5032724;28;20053;-83
2022/08/02 07:23:17;;;;;;;1.48;1.00;;;20.70;99.90;;;;;;5029154;28;20032;-81
2022/08/02 07:25:43;;;;;;;3.10;1.33;;;20.70;99.90;;;;;;5032470;28;20490;-82
2022/08/02 07:28:10;;;;;;;0.90;0.82;;;20.80;99.90;;;;;;5032266;28;20514;-81
2022/08/02 07:30:36;;;;;;;2.40;0.63;;;20.90;99.90;;;;;;5032284;28;20037;-81
2022/08/02 07:33:02;;;;;;;1.42;1.00;;;21.00;99.90;;;;;;5014682;28;20026;-81
2022/08/02 07:35:28;;;;;;;0.98;0.90;;;21.10;99.90;;;;;;5032245;28;20040;-81
2022/08/02 07:37:54;;;;;;;0.88;0.75;;;21.20;99.90;;;;;;5014484;28;20392;-81
2022/08/02 07:40:21;;;;;;;3.20;0.93;;;21.30;99.90;;;;;;5031977;28;20095;-81
2022/08/02 07:42:50;;;;;;;0.55;0.55;;;21.30;99.90;;;;;;5032177;28;20013;-81
2022/08/02 07:45:16;;;;;;;0.88;0.88;;;21.40;99.90;;;;;;5031881;28;20495;-81
2022/08/02 07:47:43;;;;;;;2.92;0.50;;;21.40;99.90;;;;;;5031997;28;20025;-81
2022/08/02 07:50:11;;;;;;;3.28;1.10;;;21.50;99.90;;;;;;5031870;28;20018;-81
2022/08/02 07:52:37;;;;;;;1.05;0.73;;;21.60;99.90;;;;;;5032111;28;20021;-81
2022/08/02 07:55:07;;;;;;;3.45;0.95;;;21.70;99.90;;;;;;5031764;28;20037;-81
2022/08/02 07:57:32;;;;;;;0.52;0.52;;;21.80;99.90;;;;;;5031692;28;20029;-81
2022/08/02 07:59:58;;;;;;;1.60;0.80;;;22.00;99.90;;;;;;5031729;28;20068;-81
2022/08/02 08:02:24;;;;;;;1.35;0.80;;;22.20;99.90;;;;;;5031912;28;20026;-82
2022/08/02 08:04:51;;;;;;;0.77;0.77;;;22.30;99.90;;;;;;5031719;28;20021;-81
2022/08/02 08:07:16;;;;;;;0.68;0.68;;;22.40;99.90;;;;;;5031675;28;20116;-81
2022/08/02 08:09:42;;;;;;;1.17;0.70;;;22.40;99.90;;;;;;5031655;28;20060;-81
2022/08/02 08:12:10;;;;;;;0.68;0.65;;;22.60;99.90;;;;;;5034229;28;20029;-82
2022/08/02 08:14:36;;;;;;;0.50;0.50;;;22.80;99.90;;;;;;5031648;28;20391;-82
2022/08/02 08:17:02;;;;;;;0.93;0.80;;;23.00;99.90;;;;;;5031688;28;20032;-81
2022/08/02 08:19:28;;;;;;;0.40;0.40;;;23.20;99.90;;;;;;5031548;28;20384;-81
2022/08/02 08:21:53;;;;;;;0.65;0.65;;;23.30;99.90;;;;;;5031504;28;20021;-82
2022/08/02 08:24:19;;;;;;;0.50;0.50;;;23.50;99.90;;;;;;5031521;28;20506;-82
2022/08/02 08:26:45;;;;;;;0.85;0.60;;;23.60;99.90;;;;;;5013792;28;20029;-82
2022/08/02 08:29:11;;;;;;;0.73;0.50;;;23.80;99.90;;;;;;5031308;28;20030;-82
2022/08/02 08:31:36;;;;;;;0.60;0.60;;;23.90;99.90;;;;;;5014280;28;20032;-82
2022/08/02 08:34:03;;;;;;;1.60;0.65;;;24.10;99.90;;;;;;5014843;28;20057;-82
2022/08/02 08:36:29;;;;;;;1.10;1.00;;;24.20;99.90;;;;;;5032375;28;20104;-82
2022/08/02 08:38:55;;;;;;;0.85;0.85;;;24.30;99.90;;;;;;5032532;28;20510;-82
2022/08/02 08:41:21;;;;;;;0.70;0.70;;;24.40;99.90;;;;;;5032569;28;20053;-82
2022/08/02 08:43:47;;;;;;;1.10;0.85;;;24.40;99.90;;;;;;5032455;28;20504;-82
2022/08/02 08:46:35;;;;;;;0.75;0.75;;;24.40;99.90;;;;;;5014992;28;20087;-82
2022/08/02 08:49:08;;;;;;;0.50;0.50;;;24.60;99.90;;;;;;5031858;28;20491;-82
2022/08/02 08:51:40;;;;;;;1.85;0.75;;;24.70;99.90;;;;;;5031748;28;20032;-82
2022/08/02 08:54:11;;;;;;;0.80;0.70;;;24.80;99.90;;;;;;5031639;28;20080;-83
2022/08/02 08:56:38;;;;;;;2.95;1.08;;;25.00;99.90;;;;;;5010488;28;20026;-83
2022/08/02 08:59:05;;;;;;;1.00;1.00;;;25.10;99.90;;;;;;5011509;28;20395;-83
2022/08/02 09:01:31;;;;;;;0.90;0.90;;;25.20;99.90;;;;;;5013844;28;20087;-82
2022/08/02 09:03:57;;;;;;;1.73;0.88;;;25.10;99.90;;;;;;5013610;28;20026;-83
2022/08/02 09:06:23;;;;;;;1.23;0.77;;;25.20;99.90;;;;;;5013758;28;20029;-83
2022/08/02 09:08:49;;;;;;;2.67;1.05;;;25.30;99.90;;;;;;5013831;28;20026;-83
2022/08/02 09:11:17;;;;;;;0.80;0.80;;;25.20;99.90;;;;;;5031308;28;20372;-83
2022/08/02 09:14:00;;;;;;;1.35;0.80;;;25.30;99.90;;;;;;5013648;28;20124;-84
2022/08/02 09:16:38;;;;;;;0.80;0.80;;;25.30;99.90;;;;;;5031505;28;20026;-83
2022/08/02 09:19:19;;;;;;;5.43;1.00;;;25.30;99.90;;;;;;5013368;28;20052;-83
2022/08/02 09:21:47;;;;;;;0.80;0.80;;;25.40;99.90;;;;;;5011721;28;20030;-84
2022/08/02 09:24:21;;;;;;;0.95;0.90;;;25.40;99.90;;;;;;5013858;28;20090;-84
2022/08/02 09:26:50;;;;;;;1.25;0.93;;;25.50;99.90;;;;;;5013612;28;20032;-84
2022/08/02 09:29:17;;;;;;;0.70;0.70;;;25.60;99.90;;;;;;4997232;28;20112;-84
2022/08/02 09:31:43;;;;;;;0.80;0.75;;;25.70;99.90;;;;;;5011575;28;20377;-84
2022/08/02 09:34:10;;;;;;;1.40;1.30;;;25.80;99.90;;;;;;4994127;28;20038;-84
2022/08/02 09:36:42;;;;;;;1.42;0.80;;;25.80;99.90;;;;;;5013898;28;20025;-84
2022/08/02 09:39:12;;;;;;;1.85;0.80;;;25.90;99.90;;;;;;4997212;28;20018;-84
2022/08/02 09:41:40;;;;;;;1.33;0.88;;;26.10;99.90;;;;;;5015130;28;20029;-84
2022/08/02 09:44:08;;;;;;;1.95;0.90;;;26.10;99.90;;;;;;4997338;28;20050;-84
2022/08/02 09:46:37;;;;;;;2.00;1.10;;;26.10;99.90;;;;;;4997472;28;20060;-84
2022/08/02 09:49:06;;;;;;;1.48;1.30;;;26.20;99.90;;;;;;5014681;28;20034;-85
2022/08/02 09:51:35;;;;;;;1.70;1.60;;;26.20;99.90;;;;;;5014915;28;20028;-84
2022/08/02 09:54:06;;;;;;;1.33;1.30;;;26.20;99.90;;;;;;4997159;28;20369;-85
2022/08/02 09:56:50;;;;;;;1.63;1.27;;;26.20;99.90;;;;;;5014709;28;20045;-84
2022/08/02 09:59:17;;;;;;;2.80;1.33;;;26.40;99.90;;;;;;4997092;28;20123;-84
2022/08/02 10:01:45;;;;;;;4.00;1.70;;;26.40;99.90;;;;;;4997245;28;20053;-84
2022/08/02 10:04:12;;;;;;;1.48;1.20;;;26.40;99.90;;;;;;4997028;28;20022;-84
2022/08/02 10:06:40;;;;;;;1.85;1.40;;;26.30;99.90;;;;;;5005905;28;20036;-84
2022/08/02 10:09:07;;;;;;;4.03;1.67;;;26.40;99.90;;;;;;5016765;28;20052;-85
2022/08/02 10:11:34;;;;;;;1.20;1.10;;;26.50;99.90;;;;;;5016621;28;20029;-85
2022/08/02 10:14:04;;;;;;;1.10;1.00;;;26.50;99.90;;;;;;5016681;28;20021;-85
2022/08/02 10:16:33;;;;;;;1.50;1.23;;;26.60;99.90;;;;;;5034198;28;20040;-85
2022/08/02 10:19:01;;;;;;;1.30;1.20;;;26.60;99.90;;;;;;5034199;28;20049;-85
2022/08/02 10:21:32;;;;;;;1.67;1.23;;;26.50;99.90;;;;;;5016155;28;20295;-84
2022/08/02 10:24:35;;;;;;;2.75;1.45;;;26.50;99.90;;;;;;5034003;28;20018;-85
2022/08/02 10:27:02;;;;;;;2.00;1.80;;;26.70;99.90;;;;;;4956853;28;20030;-85
2022/08/02 10:29:36;;;;;;;2.65;1.50;;;26.70;99.90;;;;;;5022696;28;20041;-85
2022/08/02 10:32:07;;;;;;;1.17;1.17;;;26.80;99.90;;;;;;5015847;28;20029;-85
2022/08/02 10:34:44;;;;;;;1.35;1.10;;;26.90;99.90;;;;;;5033664;28;20053;-85
2022/08/02 10:37:12;;;;;;;3.30;1.25;;;27.00;99.90;;;;;;5033852;28;20036;-85
2022/08/02 10:39:39;;;;;;;1.52;1.08;;;27.10;99.90;;;;;;5015839;28;20052;-85
2022/08/02 10:42:05;;;;;;;1.35;1.30;;;27.10;99.90;;;;;;5033808;28;20048;-85
2022/08/02 10:44:32;;;;;;;1.05;1.05;;;27.20;99.90;;;;;;5015779;28;20495;-85
2022/08/02 10:47:13;;;;;;;4.75;1.27;;;27.30;99.90;;;;;;5016082;28;20492;-85
2022/08/02 10:49:49;;;;;;;1.95;1.70;;;27.40;99.90;;;;;;5015775;28;20036;-85
2022/08/02 10:52:15;;;;;;;3.35;1.25;;;27.50;99.90;;;;;;5015881;28;20100;-86
2022/08/02 10:54:47;;;;;;;1.33;1.23;;;27.60;99.90;;;;;;5015627;28;20037;-85
2022/08/02 10:57:20;;;;;;;1.33;1.25;;;27.80;99.90;;;;;;5033353;28;20033;-85
2022/08/02 10:59:48;;;;;;;1.70;1.23;;;27.80;99.90;;;;;;5033421;28;20100;-85
2022/08/02 11:02:48;;;;;;;1.38;1.27;;;27.80;99.90;;;;;;5033129;28;20026;-85
2022/08/02 11:05:17;;;;;;;1.05;1.05;;;27.90;99.50;;;;;;5015685;28;20276;-85
2022/08/02 11:07:48;;;;;;;1.13;1.13;;;28.10;99.90;;;;;;5033243;28;20033;-85
2022/08/02 11:10:33;;;;;;;1.38;1.13;;;28.30;99.40;;;;;;5033018;28;20360;-85
2022/08/02 11:13:03;;;;;;;1.05;0.85;;;28.40;99.90;;;;;;5015475;28;20025;-85
2022/08/02 11:15:45;;;;;;;2.08;1.25;;;28.50;99.10;;;;;;5033193;28;20033;-86
2022/08/02 11:18:11;;;;;;;;;;;28.70;99.40;;;;;;5013516;28;20134;-84
2022/08/02 11:20:36;;;;;;;1.67;1.05;;;28.80;99.20;;;;;;5032898;28;19905;-85
2022/08/02 11:23:36;;;;;;;2.10;0.98;;;28.80;97.10;;;;;;5015402;28;20033;-86
2022/08/02 11:26:23;;;;;;;0.88;0.88;;;28.90;98.80;;;;;;5033071;28;20030;-86
2022/08/02 11:28:49;;;;;;;1.00;1.00;;;28.90;96.60;;;;;;5001288;28;20034;-85
2022/08/02 11:31:15;;;;;;;2.08;1.10;;;29.00;96.10;;;;;;5032936;28;20440;-86
2022/08/02 11:33:42;;;;;;;0.90;0.90;;;29.10;96.10;;;;;;5014992;28;20033;-86
2022/08/02 11:36:08;;;;;;;2.47;1.05;;;29.30;96.50;;;;;;5014909;28;20021;-85
2022/08/02 11:38:33;;;;;;;1.10;0.98;;;29.30;93.80;;;;;;5014989;28;20075;-85
2022/08/02 11:41:03;;;;;;;0.77;0.77;;;29.40;94.70;;;;;;5014779;28;20029;-85
2022/08/02 11:43:30;;;;;;;0.80;0.80;;;29.50;92.60;;;;;;5014829;28;20411;-85
2022/08/02 11:45:56;;;;;;;1.60;1.00;;;29.60;93.30;;;;;;5014970;28;20032;-84
2022/08/02 11:48:35;;;;;;;1.20;1.13;;;29.80;93.20;;;;;;5014347;28;20025;-85
2022/08/02 11:51:10;;;;;;;0.77;0.77;;;29.90;92.60;;;;;;5032343;28;20029;-85
2022/08/02 11:53:48;;;;;;;0.70;0.55;;;30.10;90.60;;;;;;5032212;28;20033;-85
2022/08/02 11:56:15;;;;;;;0.93;0.80;;;30.40;88.70;;;;;;5014544;28;20064;-85
2022/08/02 11:58:58;;;;;;;0.70;0.70;;;30.30;83.80;;;;;;5031662;28;20029;-85
2022/08/02 12:01:24;;;;;;;0.80;0.80;;;30.40;81.50;;;;;;5014478;28;20029;-85
2022/08/02 12:03:50;;;;;;;0.93;0.80;;;30.50;80.30;;;;;;5031964;28;20487;-84
2022/08/02 12:06:17;;;;;;;0.60;0.60;;;30.60;77.90;;;;;;5016972;28;20029;-85
2022/08/02 12:08:43;;;;;;;0.80;0.80;;;30.60;77.10;;;;;;5031828;28;20108;-84
2022/08/02 12:11:09;;;;;;;0.77;0.77;;;30.60;73.80;;;;;;5031821;28;20179;-84
2022/08/02 12:13:42;;;;;;;1.08;0.98;;;30.70;77.20;;;;;;5031890;28;20024;-84
2022/08/02 12:21:42;;;;;;;0.88;0.88;;;31.20;70.70;;;;;;5031844;28;20041;-84
2022/08/02 12:24:09;;;;;;;3.10;1.00;;;31.30;73.00;;;;;;5014079;28;20064;-84
2022/08/02 12:26:46;;;;;;;0.80;0.80;;;31.30;73.30;;;;;;5013737;28;20028;-83
2022/08/02 12:29:12;;;;;;;1.05;0.77;;;31.20;74.60;;;;;;5031506;28;20021;-84
2022/08/02 12:31:47;;;;;;;2.75;1.10;;;31.30;71.70;;;;;;5031665;28;20033;-84
2022/08/02 12:34:19;;;;;;;1.17;0.90;;;31.30;73.20;;;;;;5031658;28;20021;-84
2022/08/02 12:37:06;;;;;;;0.98;0.93;;;31.50;71.00;;;;;;5013747;28;20040;-83
2022/08/02 12:39:44;;;;;;;0.88;0.88;;;31.60;70.20;;;;;;5031283;28;20025;-83
2022/08/02 12:42:13;;;;;;;1.77;0.73;;;31.60;71.50;;;;;;5013604;28;20534;-83
2022/08/02 12:44:59;;;;;;;1.35;0.90;;;31.60;68.80;;;;;;5031159;28;20049;-83
2022/08/02 12:47:26;;;;;;;0.73;0.70;;;31.80;73.20;;;;;;5031369;28;20037;-83
2022/08/02 12:50:16;;;;;;;1.02;1.02;;;31.70;69.80;;;;;;5031120;28;20022;-83
2022/08/02 12:52:41;;;;;;;2.08;1.30;;;31.80;73.00;;;;;;5031228;28;20025;-83
2022/08/02 12:55:14;;;;;;;0.82;0.77;;;31.90;73.50;;;;;;5013625;28;20566;-83
2022/08/02 12:57:51;;;;;;;0.70;0.70;;;31.90;72.40;;;;;;5031134;28;20036;-83
2022/08/02 13:00:28;;;;;;;0.80;0.80;;;32.00;73.30;;;;;;5031043;28;20200;-83
2022/08/02 13:02:54;;;;;;;1.33;1.05;;;32.10;70.20;;;;;;5031371;28;20083;-83
2022/08/02 13:05:20;;;;;;;1.30;0.77;;;32.20;67.70;;;;;;5013260;28;20383;-83